sensor_id;sensor_type;location;lat;lon;timestamp;temperature;humidity
43089;DHT22;28709;52.030;5.652;2023-02-15T00:01:37;2.70;99.90
43089;DHT22;28709;52.030;5.652;2023-02-15T00:04:04;2.70;99.90
43089;DHT22;28709;52.030;5.652;2023-02-15T00:06:29;2.70;99.90
43089;DHT22;28709;52.030;5.652;2023-02-15T00:08:55;2.70;99.90
43089;DHT22;28709;52.030;5.652;2023-02-15T00:11:22;2.70;99.90
43089;DHT22;28709;52.030;5.652;2023-02-15T00:14:13;2.70;99.90
43089;DHT22;28709;52.030;5.652;2023-02-15T00:16:41;2.70;99.90
43089;DHT22;28709;52.030;5.652;2023-02-15T00:19:08;2.70;99.90
43089;DHT22;28709;52.030;5.652;2023-02-15T00:21:35;2.60;99.90
43089;DHT22;28709;52.030;5.652;2023-02-15T00:24:03;2.60;99.90
43089;DHT22;28709;52.030;5.652;2023-02-15T00:26:30;2.60;99.90
43089;DHT22;28709;52.030;5.652;2023-02-15T00:28:56;2.50;99.90
43089;DHT22;28709;52.030;5.652;2023-02-15T00:31:24;2.50;99.90
43089;DHT22;28709;52.030;5.652;2023-02-15T00:33:50;2.50;99.90
43089;DHT22;28709;52.030;5.652;2023-02-15T00:36:15;2.50;99.90
43089;DHT22;28709;52.030;5.652;2023-02-15T00:38:41;2.50;99.90
43089;DHT22;28709;52.030;5.652;2023-02-15T00:41:08;2.50;99.90
43089;DHT22;28709;52.030;5.652;2023-02-15T00:43:34;2.50;99.90
43089;DHT22;28709;52.030;5.652;2023-02-15T00:46:02;2.50;99.90
43089;DHT22;28709;52.030;5.652;2023-02-15T00:48:28;2.50;99.90
43089;DHT22;28709;52.030;5.652;2023-02-15T00:50:58;2.40;99.90
43089;DHT22;28709;52.030;5.652;2023-02-15T00:53:25;2.40;99.90
43089;DHT22;28709;52.030;5.652;2023-02-15T00:55:51;2.40;99.90
43089;DHT22;28709;52.030;5.652;2023-02-15T00:58:17;2.30;99.90
43089;DHT22;28709;52.030;5.652;2023-02-15T01:00:45;2.30;99.90
43089;DHT22;28709;52.030;5.652;2023-02-15T01:03:12;2.30;99.90
43089;DHT22;28709;52.030;5.652;2023-02-15T01:05:38;2.30;99.90
43089;DHT22;28709;52.030;5.652;2023-02-15T01:08:04;2.30;99.90
43089;DHT22;28709;52.030;5.652;2023-02-15T01:10:30;2.30;99.90
43089;DHT22;28709;52.030;5.652;2023-02-15T01:12:56;2.20;99.90
43089;DHT22;28709;52.030;5.652;2023-02-15T01:15:22;2.20;99.90
43089;DHT22;28709;52.030;5.652;2023-02-15T01:17:48;2.20;99.90
43089;DHT22;28709;52.030;5.652;2023-02-15T01:20:20;2.20;99.90
43089;DHT22;28709;52.030;5.652;2023-02-15T01:22:46;2.20;99.90
43089;DHT22;28709;52.030;5.652;2023-02-15T01:25:12;2.10;99.90
43089;DHT22;28709;52.030;5.652;2023-02-15T01:27:37;2.10;99.90
43089;DHT22;28709;52.030;5.652;2023-02-15T01:30:03;2.10;99.90
43089;DHT22;28709;52.030;5.652;2023-02-15T01:32:30;2.10;99.90
43089;DHT22;28709;52.030;5.652;2023-02-15T01:34:56;2.10;99.90
43089;DHT22;28709;52.030;5.652;2023-02-15T01:37:22;2.10;99.90
43089;DHT22;28709;52.030;5.652;2023-02-15T01:39:47;2.00;99.90
43089;DHT22;28709;52.030;5.652;2023-02-15T01:42:13;2.00;99.90
43089;DHT22;28709;52.030;5.652;2023-02-15T01:47:14;2.00;99.90
43089;DHT22;28709;52.030;5.652;2023-02-15T01:49:42;2.00;99.90
43089;DHT22;28709;52.030;5.652;2023-02-15T01:52:10;2.00;99.90
43089;DHT22;28709;52.030;5.652;2023-02-15T01:54:39;2.00;99.90
43089;DHT22;28709;52.030;5.652;2023-02-15T01:57:10;2.00;99.90
43089;DHT22;28709;52.030;5.652;2023-02-15T01:59:38;2.00;99.90
43089;DHT22;28709;52.030;5.652;2023-02-15T02:02:07;2.00;99.90
43089;DHT22;28709;52.030;5.652;2023-02-15T02:04:39;2.00;99.90
43089;DHT22;28709;52.030;5.652;2023-02-15T02:07:07;2.00;99.90
43089;DHT22;28709;52.030;5.652;2023-02-15T02:09:34;2.00;99.90
43089;DHT22;28709;52.030;5.652;2023-02-15T02:12:01;2.10;99.90
43089;DHT22;28709;52.030;5.652;2023-02-15T02:14:27;2.10;99.90
43089;DHT22;28709;52.030;5.652;2023-02-15T02:17:17;2.10;99.90
43089;DHT22;28709;52.030;5.652;2023-02-15T02:31:39;2.10;99.90
43089;DHT22;28709;52.030;5.652;2023-02-15T02:34:29;2.10;99.90
43089;DHT22;28709;52.030;5.652;2023-02-15T02:42:56;2.00;99.90
43089;DHT22;28709;52.030;5.652;2023-02-15T02:45:44;2.00;99.90
43089;DHT22;28709;52.030;5.652;2023-02-15T02:48:19;2.00;99.90
43089;DHT22;28709;52.030;5.652;2023-02-15T02:50:45;1.90;99.90
43089;DHT22;28709;52.030;5.652;2023-02-15T02:53:11;2.00;99.90
43089;DHT22;28709;52.030;5.652;2023-02-15T02:56:18;1.90;99.90
43089;DHT22;28709;52.030;5.652;2023-02-15T02:58:54;2.00;99.90
43089;DHT22;28709;52.030;5.652;2023-02-15T03:02:16;2.00;99.90
43089;DHT22;28709;52.030;5.652;2023-02-15T03:04:38;2.00;99.90
43089;DHT22;28709;52.030;5.652;2023-02-15T03:07:08;2.00;99.90
43089;DHT22;28709;52.030;5.652;2023-02-15T03:09:45;2.00;99.90
43089;DHT22;28709;52.030;5.652;2023-02-15T03:12:18;2.00;99.90
43089;DHT22;28709;52.030;5.652;2023-02-15T03:14:51;2.00;99.90
43089;DHT22;28709;52.030;5.652;2023-02-15T03:17:19;2.00;99.90
43089;DHT22;28709;52.030;5.652;2023-02-15T03:19:48;2.00;99.90
43089;DHT22;28709;52.030;5.652;2023-02-15T03:24:59;2.00;99.90
43089;DHT22;28709;52.030;5.652;2023-02-15T03:27:33;2.00;99.90
43089;DHT22;28709;52.030;5.652;2023-02-15T03:30:02;2.00;99.90
43089;DHT22;28709;52.030;5.652;2023-02-15T03:32:29;1.90;99.90
43089;DHT22;28709;52.030;5.652;2023-02-15T03:34:57;1.90;99.90
43089;DHT22;28709;52.030;5.652;2023-02-15T03:40:03;1.90;99.90
43089;DHT22;28709;52.030;5.652;2023-02-15T03:42:58;2.00;99.90
43089;DHT22;28709;52.030;5.652;2023-02-15T03:45:29;2.00;99.90
43089;DHT22;28709;52.030;5.652;2023-02-15T03:47:56;1.90;99.90
43089;DHT22;28709;52.030;5.652;2023-02-15T03:50:29;1.90;99.90
43089;DHT22;28709;52.030;5.652;2023-02-15T03:53:17;1.90;99.90
43089;DHT22;28709;52.030;5.652;2023-02-15T03:55:49;1.90;99.90
43089;DHT22;28709;52.030;5.652;2023-02-15T03:58:15;1.90;99.90
43089;DHT22;28709;52.030;5.652;2023-02-15T04:01:05;1.80;99.90
43089;DHT22;28709;52.030;5.652;2023-02-15T04:04:12;1.80;99.90
43089;DHT22;28709;52.030;5.652;2023-02-15T04:06:40;1.80;99.90
43089;DHT22;28709;52.030;5.652;2023-02-15T04:09:06;1.90;99.90
43089;DHT22;28709;52.030;5.652;2023-02-15T04:11:50;1.80;99.90
43089;DHT22;28709;52.030;5.652;2023-02-15T04:14:16;1.70;99.90
43089;DHT22;28709;52.030;5.652;2023-02-15T04:17:00;1.70;99.90
43089;DHT22;28709;52.030;5.652;2023-02-15T04:19:25;1.70;99.90
43089;DHT22;28709;52.030;5.652;2023-02-15T04:22:09;1.70;99.90
43089;DHT22;28709;52.030;5.652;2023-02-15T04:24:53;1.80;99.90
43089;DHT22;28709;52.030;5.652;2023-02-15T04:27:42;1.80;99.90
43089;DHT22;28709;52.030;5.652;2023-02-15T04:30:08;1.90;99.90
43089;DHT22;28709;52.030;5.652;2023-02-15T04:32:35;1.90;99.90
43089;DHT22;28709;52.030;5.652;2023-02-15T04:35:01;1.90;99.90
43089;DHT22;28709;52.030;5.652;2023-02-15T04:37:27;1.90;99.90
43089;DHT22;28709;52.030;5.652;2023-02-15T04:39:53;2.00;99.90
43089;DHT22;28709;52.030;5.652;2023-02-15T04:42:19;2.20;99.90
43089;DHT22;28709;52.030;5.652;2023-02-15T04:44:44;2.30;99.90
43089;DHT22;28709;52.030;5.652;2023-02-15T04:47:10;2.40;99.90
43089;DHT22;28709;52.030;5.652;2023-02-15T04:49:36;2.50;99.90
43089;DHT22;28709;52.030;5.652;2023-02-15T04:52:01;2.60;99.90
43089;DHT22;28709;52.030;5.652;2023-02-15T04:54:27;2.70;99.90
43089;DHT22;28709;52.030;5.652;2023-02-15T04:56:52;2.80;99.90
43089;DHT22;28709;52.030;5.652;2023-02-15T04:59:18;2.80;99.90
43089;DHT22;28709;52.030;5.652;2023-02-15T05:01:44;2.80;99.90
43089;DHT22;28709;52.030;5.652;2023-02-15T05:04:09;2.90;99.90
43089;DHT22;28709;52.030;5.652;2023-02-15T05:06:35;2.90;99.90
43089;DHT22;28709;52.030;5.652;2023-02-15T05:09:01;2.90;99.90
43089;DHT22;28709;52.030;5.652;2023-02-15T05:11:26;2.90;99.90
43089;DHT22;28709;52.030;5.652;2023-02-15T05:13:52;2.80;99.90
43089;DHT22;28709;52.030;5.652;2023-02-15T05:16:18;2.60;99.90
43089;DHT22;28709;52.030;5.652;2023-02-15T05:18:43;2.60;99.90
43089;DHT22;28709;52.030;5.652;2023-02-15T05:21:09;2.50;99.90
43089;DHT22;28709;52.030;5.652;2023-02-15T05:23:35;2.40;99.90
43089;DHT22;28709;52.030;5.652;2023-02-15T05:26:01;2.40;99.90
43089;DHT22;28709;52.030;5.652;2023-02-15T05:28:45;2.40;99.90
43089;DHT22;28709;52.030;5.652;2023-02-15T05:31:17;2.50;99.90
43089;DHT22;28709;52.030;5.652;2023-02-15T05:33:43;2.50;99.90
43089;DHT22;28709;52.030;5.652;2023-02-15T05:36:09;2.50;99.90
43089;DHT22;28709;52.030;5.652;2023-02-15T05:38:35;2.60;99.90
43089;DHT22;28709;52.030;5.652;2023-02-15T05:41:05;2.60;99.90
43089;DHT22;28709;52.030;5.652;2023-02-15T05:43:31;2.60;99.90
43089;DHT22;28709;52.030;5.652;2023-02-15T05:45:57;2.60;99.90
43089;DHT22;28709;52.030;5.652;2023-02-15T05:48:25;2.60;99.90
43089;DHT22;28709;52.030;5.652;2023-02-15T05:51:09;2.60;99.90
43089;DHT22;28709;52.030;5.652;2023-02-15T05:53:37;2.60;99.90
43089;DHT22;28709;52.030;5.652;2023-02-15T05:56:04;2.60;99.90
43089;DHT22;28709;52.030;5.652;2023-02-15T05:58:33;2.50;99.90
43089;DHT22;28709;52.030;5.652;2023-02-15T06:00:59;2.50;99.90
43089;DHT22;28709;52.030;5.652;2023-02-15T06:03:24;2.50;99.90
43089;DHT22;28709;52.030;5.652;2023-02-15T06:05:52;2.50;99.90
43089;DHT22;28709;52.030;5.652;2023-02-15T06:08:18;2.50;99.90
43089;DHT22;28709;52.030;5.652;2023-02-15T06:10:46;2.40;99.90
43089;DHT22;28709;52.030;5.652;2023-02-15T06:13:11;2.40;99.90
43089;DHT22;28709;52.030;5.652;2023-02-15T06:15:37;2.40;99.90
43089;DHT22;28709;52.030;5.652;2023-02-15T06:18:03;2.40;99.90
43089;DHT22;28709;52.030;5.652;2023-02-15T06:20:29;2.30;99.90
43089;DHT22;28709;52.030;5.652;2023-02-15T06:22:54;2.30;99.90
43089;DHT22;28709;52.030;5.652;2023-02-15T06:25:20;2.30;99.90
43089;DHT22;28709;52.030;5.652;2023-02-15T06:27:45;2.30;99.90
43089;DHT22;28709;52.030;5.652;2023-02-15T06:30:11;2.30;99.90
43089;DHT22;28709;52.030;5.652;2023-02-15T06:32:37;2.30;99.90
43089;DHT22;28709;52.030;5.652;2023-02-15T06:35:03;2.30;99.90
43089;DHT22;28709;52.030;5.652;2023-02-15T06:37:29;2.30;99.90
43089;DHT22;28709;52.030;5.652;2023-02-15T06:39:55;2.40;99.90
43089;DHT22;28709;52.030;5.652;2023-02-15T06:42:21;2.40;99.90
43089;DHT22;28709;52.030;5.652;2023-02-15T06:44:47;2.40;99.90
43089;DHT22;28709;52.030;5.652;2023-02-15T06:47:13;2.40;99.90
43089;DHT22;28709;52.030;5.652;2023-02-15T06:49:38;2.40;99.90
43089;DHT22;28709;52.030;5.652;2023-02-15T06:52:04;2.40;99.90
43089;DHT22;28709;52.030;5.652;2023-02-15T06:54:30;2.40;99.90
43089;DHT22;28709;52.030;5.652;2023-02-15T06:56:56;2.40;99.90
43089;DHT22;28709;52.030;5.652;2023-02-15T06:59:21;2.50;99.90
43089;DHT22;28709;52.030;5.652;2023-02-15T07:01:47;2.50;99.90
43089;DHT22;28709;52.030;5.652;2023-02-15T07:04:14;2.50;99.90
43089;DHT22;28709;52.030;5.652;2023-02-15T07:06:40;2.50;99.90
43089;DHT22;28709;52.030;5.652;2023-02-15T07:09:06;2.50;99.90
43089;DHT22;28709;52.030;5.652;2023-02-15T07:11:32;2.50;99.90
43089;DHT22;28709;52.030;5.652;2023-02-15T07:14:16;2.50;99.90
43089;DHT22;28709;52.030;5.652;2023-02-15T07:16:41;2.50;99.90
43089;DHT22;28709;52.030;5.652;2023-02-15T07:19:07;2.50;99.90
43089;DHT22;28709;52.030;5.652;2023-02-15T07:21:34;2.50;99.90
43089;DHT22;28709;52.030;5.652;2023-02-15T07:24:00;2.50;99.90
43089;DHT22;28709;52.030;5.652;2023-02-15T07:26:26;2.60;99.90
43089;DHT22;28709;52.030;5.652;2023-02-15T07:28:51;2.60;99.90
43089;DHT22;28709;52.030;5.652;2023-02-15T07:31:17;2.60;99.90
43089;DHT22;28709;52.030;5.652;2023-02-15T07:33:43;2.70;99.90
43089;DHT22;28709;52.030;5.652;2023-02-15T07:36:09;2.70;99.90
43089;DHT22;28709;52.030;5.652;2023-02-15T07:38:39;2.70;99.90
43089;DHT22;28709;52.030;5.652;2023-02-15T07:41:11;2.80;99.90
43089;DHT22;28709;52.030;5.652;2023-02-15T07:43:39;2.90;99.90
43089;DHT22;28709;52.030;5.652;2023-02-15T07:46:08;3.00;99.90
43089;DHT22;28709;52.030;5.652;2023-02-15T07:48:35;3.10;99.90
43089;DHT22;28709;52.030;5.652;2023-02-15T07:51:02;3.20;99.90
43089;DHT22;28709;52.030;5.652;2023-02-15T07:53:28;3.30;99.90
43089;DHT22;28709;52.030;5.652;2023-02-15T07:55:54;3.50;99.90
43089;DHT22;28709;52.030;5.652;2023-02-15T07:58:23;3.70;99.90
43089;DHT22;28709;52.030;5.652;2023-02-15T08:01:09;3.90;99.90
43089;DHT22;28709;52.030;5.652;2023-02-15T08:03:34;4.10;99.90
43089;DHT22;28709;52.030;5.652;2023-02-15T08:06:00;4.40;99.90
43089;DHT22;28709;52.030;5.652;2023-02-15T08:08:26;4.50;99.90
43089;DHT22;28709;52.030;5.652;2023-02-15T08:11:02;4.70;99.90
43089;DHT22;28709;52.030;5.652;2023-02-15T08:13:47;4.80;99.90
43089;DHT22;28709;52.030;5.652;2023-02-15T08:18:45;5.20;99.90
43089;DHT22;28709;52.030;5.652;2023-02-15T08:21:11;5.40;99.90
43089;DHT22;28709;52.030;5.652;2023-02-15T08:23:37;5.60;99.90
43089;DHT22;28709;52.030;5.652;2023-02-15T08:26:02;5.80;99.90
43089;DHT22;28709;52.030;5.652;2023-02-15T08:28:29;6.00;99.90
43089;DHT22;28709;52.030;5.652;2023-02-15T08:30:55;6.30;99.90
43089;DHT22;28709;52.030;5.652;2023-02-15T08:33:21;6.50;99.90
43089;DHT22;28709;52.030;5.652;2023-02-15T08:35:46;6.70;99.90
43089;DHT22;28709;52.030;5.652;2023-02-15T08:38:12;6.80;99.90
43089;DHT22;28709;52.030;5.652;2023-02-15T08:40:37;6.90;99.90
43089;DHT22;28709;52.030;5.652;2023-02-15T08:43:03;6.90;99.90
43089;DHT22;28709;52.030;5.652;2023-02-15T08:45:29;6.90;99.90
43089;DHT22;28709;52.030;5.652;2023-02-15T08:47:54;6.90;99.90
43089;DHT22;28709;52.030;5.652;2023-02-15T08:50:20;7.10;99.90
43089;DHT22;28709;52.030;5.652;2023-02-15T08:52:46;7.20;99.90
43089;DHT22;28709;52.030;5.652;2023-02-15T08:55:11;7.20;99.90
43089;DHT22;28709;52.030;5.652;2023-02-15T08:57:37;7.40;99.90
43089;DHT22;28709;52.030;5.652;2023-02-15T09:00:04;7.60;99.90
43089;DHT22;28709;52.030;5.652;2023-02-15T09:02:30;7.80;99.90
43089;DHT22;28709;52.030;5.652;2023-02-15T09:04:55;8.00;99.90
43089;DHT22;28709;52.030;5.652;2023-02-15T09:07:21;8.10;99.90
43089;DHT22;28709;52.030;5.652;2023-02-15T09:09:46;8.10;99.90
43089;DHT22;28709;52.030;5.652;2023-02-15T09:12:12;8.20;99.90
43089;DHT22;28709;52.030;5.652;2023-02-15T09:14:38;8.30;99.90
43089;DHT22;28709;52.030;5.652;2023-02-15T09:17:03;8.40;99.90
43089;DHT22;28709;52.030;5.652;2023-02-15T09:19:29;8.50;99.90
43089;DHT22;28709;52.030;5.652;2023-02-15T09:21:55;8.60;99.90
43089;DHT22;28709;52.030;5.652;2023-02-15T09:24:20;8.60;99.90
43089;DHT22;28709;52.030;5.652;2023-02-15T09:26:47;8.40;99.90
43089;DHT22;28709;52.030;5.652;2023-02-15T09:29:14;8.20;99.90
43089;DHT22;28709;52.030;5.652;2023-02-15T09:31:48;8.20;99.90
43089;DHT22;28709;52.030;5.652;2023-02-15T09:34:16;8.00;99.90
43089;DHT22;28709;52.030;5.652;2023-02-15T09:36:43;8.00;99.90
43089;DHT22;28709;52.030;5.652;2023-02-15T09:42:22;8.10;99.90
43089;DHT22;28709;52.030;5.652;2023-02-15T09:59:16;9.00;99.90
43089;DHT22;28709;52.030;5.652;2023-02-15T10:07:48;9.20;99.90
43089;DHT22;28709;52.030;5.652;2023-02-15T10:10:35;9.10;99.90
43089;DHT22;28709;52.030;5.652;2023-02-15T10:26:22;10.80;99.90
43089;DHT22;28709;52.030;5.652;2023-02-15T10:29:13;11.20;99.90
43089;DHT22;28709;52.030;5.652;2023-02-15T10:31:50;11.40;99.90
43089;DHT22;28709;52.030;5.652;2023-02-15T10:34:18;11.60;99.90
43089;DHT22;28709;52.030;5.652;2023-02-15T10:39:57;12.40;99.90
43089;DHT22;28709;52.030;5.652;2023-02-15T10:50:54;12.40;99.90
43089;DHT22;28709;52.030;5.652;2023-02-15T10:56:02;12.50;99.90
43089;DHT22;28709;52.030;5.652;2023-02-15T11:07:04;13.60;99.90
43089;DHT22;28709;52.030;5.652;2023-02-15T11:09:43;13.80;99.90
43089;DHT22;28709;52.030;5.652;2023-02-15T11:12:16;13.90;99.50
43089;DHT22;28709;52.030;5.652;2023-02-15T11:14:58;13.80;99.00
43089;DHT22;28709;52.030;5.652;2023-02-15T11:18:04;13.60;99.00
43089;DHT22;28709;52.030;5.652;2023-02-15T11:20:35;13.70;99.10
43089;DHT22;28709;52.030;5.652;2023-02-15T11:23:02;14.00;98.90
43089;DHT22;28709;52.030;5.652;2023-02-15T11:25:31;14.30;98.70
43089;DHT22;28709;52.030;5.652;2023-02-15T11:27:57;14.70;98.10
43089;DHT22;28709;52.030;5.652;2023-02-15T11:30:28;14.80;97.50
43089;DHT22;28709;52.030;5.652;2023-02-15T11:33:01;14.70;97.40
43089;DHT22;28709;52.030;5.652;2023-02-15T11:38:17;14.30;97.00
43089;DHT22;28709;52.030;5.652;2023-02-15T11:40:46;13.80;97.70
43089;DHT22;28709;52.030;5.652;2023-02-15T11:43:23;13.40;98.00
43089;DHT22;28709;52.030;5.652;2023-02-15T11:45:49;13.20;98.60
43089;DHT22;28709;52.030;5.652;2023-02-15T11:48:15;13.10;99.30
43089;DHT22;28709;52.030;5.652;2023-02-15T11:50:44;13.10;99.20
43089;DHT22;28709;52.030;5.652;2023-02-15T11:53:13;13.20;99.30
43089;DHT22;28709;52.030;5.652;2023-02-15T11:55:43;13.30;99.20
43089;DHT22;28709;52.030;5.652;2023-02-15T12:01:33;13.80;98.80
43089;DHT22;28709;52.030;5.652;2023-02-15T12:04:20;14.10;98.10
43089;DHT22;28709;52.030;5.652;2023-02-15T12:07:09;14.10;98.00
43089;DHT22;28709;52.030;5.652;2023-02-15T12:09:45;14.30;97.80
43089;DHT22;28709;52.030;5.652;2023-02-15T12:14:58;15.00;97.60
43089;DHT22;28709;52.030;5.652;2023-02-15T12:17:25;15.30;96.60
43089;DHT22;28709;52.030;5.652;2023-02-15T12:20:01;15.50;96.30
43089;DHT22;28709;52.030;5.652;2023-02-15T12:22:30;15.40;95.90
43089;DHT22;28709;52.030;5.652;2023-02-15T12:24:59;15.60;96.00
43089;DHT22;28709;52.030;5.652;2023-02-15T12:27:30;15.50;95.30
43089;DHT22;28709;52.030;5.652;2023-02-15T12:30:06;15.30;95.30
43089;DHT22;28709;52.030;5.652;2023-02-15T12:32:53;15.20;95.60
43089;DHT22;28709;52.030;5.652;2023-02-15T12:35:31;15.10;95.70
43089;DHT22;28709;52.030;5.652;2023-02-15T12:40:31;15.10;95.30
43089;DHT22;28709;52.030;5.652;2023-02-15T12:42:59;15.10;95.70
43089;DHT22;28709;52.030;5.652;2023-02-15T12:45:26;15.30;95.60
43089;DHT22;28709;52.030;5.652;2023-02-15T12:50:40;15.60;94.90
43089;DHT22;28709;52.030;5.652;2023-02-15T12:53:30;15.70;94.90
43089;DHT22;28709;52.030;5.652;2023-02-15T12:56:02;15.60;94.70
43089;DHT22;28709;52.030;5.652;2023-02-15T12:58:40;15.30;94.90
43089;DHT22;28709;52.030;5.652;2023-02-15T13:01:16;15.20;95.30
43089;DHT22;28709;52.030;5.652;2023-02-15T13:04:04;15.40;95.40
43089;DHT22;28709;52.030;5.652;2023-02-15T13:06:34;15.50;95.00
43089;DHT22;28709;52.030;5.652;2023-02-15T13:09:18;15.70;95.50
43089;DHT22;28709;52.030;5.652;2023-02-15T13:11:45;15.80;94.40
43089;DHT22;28709;52.030;5.652;2023-02-15T13:14:31;15.60;93.90
43089;DHT22;28709;52.030;5.652;2023-02-15T13:17:01;15.20;94.40
43089;DHT22;28709;52.030;5.652;2023-02-15T13:19:41;14.80;94.90
43089;DHT22;28709;52.030;5.652;2023-02-15T13:22:17;14.50;95.10
43089;DHT22;28709;52.030;5.652;2023-02-15T13:24:57;14.20;95.50
43089;DHT22;28709;52.030;5.652;2023-02-15T13:27:29;14.00;95.90
43089;DHT22;28709;52.030;5.652;2023-02-15T13:29:59;13.90;96.10
43089;DHT22;28709;52.030;5.652;2023-02-15T13:32:37;13.80;96.20
43089;DHT22;28709;52.030;5.652;2023-02-15T13:35:06;13.70;96.50
43089;DHT22;28709;52.030;5.652;2023-02-15T13:40:21;13.50;97.00
43089;DHT22;28709;52.030;5.652;2023-02-15T13:43:10;13.60;97.10
43089;DHT22;28709;52.030;5.652;2023-02-15T13:45:54;14.00;97.00
43089;DHT22;28709;52.030;5.652;2023-02-15T13:56:32;14.40;96.10
43089;DHT22;28709;52.030;5.652;2023-02-15T14:07:07;13.50;97.00
43089;DHT22;28709;52.030;5.652;2023-02-15T14:18:19;12.70;98.50
43089;DHT22;28709;52.030;5.652;2023-02-15T14:20:56;12.60;98.70
43089;DHT22;28709;52.030;5.652;2023-02-15T14:26:21;12.50;99.10
43089;DHT22;28709;52.030;5.652;2023-02-15T14:29:00;12.50;99.30
43089;DHT22;28709;52.030;5.652;2023-02-15T14:31:36;12.50;99.40
43089;DHT22;28709;52.030;5.652;2023-02-15T14:34:03;12.50;99.60
43089;DHT22;28709;52.030;5.652;2023-02-15T14:36:30;12.40;99.70
43089;DHT22;28709;52.030;5.652;2023-02-15T14:39:33;12.40;99.80
43089;DHT22;28709;52.030;5.652;2023-02-15T14:45:16;12.50;99.90
43089;DHT22;28709;52.030;5.652;2023-02-15T14:47:51;12.50;99.90
43089;DHT22;28709;52.030;5.652;2023-02-15T14:50:42;12.40;99.90
43089;DHT22;28709;52.030;5.652;2023-02-15T15:01:32;12.40;99.90
43089;DHT22;28709;52.030;5.652;2023-02-15T15:04:01;12.40;99.90
43089;DHT22;28709;52.030;5.652;2023-02-15T15:06:31;12.40;99.90
43089;DHT22;28709;52.030;5.652;2023-02-15T15:09:28;12.30;99.90
43089;DHT22;28709;52.030;5.652;2023-02-15T15:14:41;12.20;99.90
43089;DHT22;28709;52.030;5.652;2023-02-15T15:17:10;12.20;99.90
43089;DHT22;28709;52.030;5.652;2023-02-15T15:22:24;12.10;99.90
43089;DHT22;28709;52.030;5.652;2023-02-15T15:25:04;12.00;99.90
43089;DHT22;28709;52.030;5.652;2023-02-15T15:32:57;11.90;99.90
43089;DHT22;28709;52.030;5.652;2023-02-15T15:41:12;11.90;99.90
43089;DHT22;28709;52.030;5.652;2023-02-15T15:49:21;11.80;99.90
43089;DHT22;28709;52.030;5.652;2023-02-15T15:51:47;11.80;99.90
43089;DHT22;28709;52.030;5.652;2023-02-15T15:54:22;11.80;99.90
43089;DHT22;28709;52.030;5.652;2023-02-15T15:57:00;11.70;99.90
43089;DHT22;28709;52.030;5.652;2023-02-15T15:59:32;11.70;99.90
43089;DHT22;28709;52.030;5.652;2023-02-15T16:02:06;11.70;99.90
43089;DHT22;28709;52.030;5.652;2023-02-15T16:04:34;11.60;99.90
43089;DHT22;28709;52.030;5.652;2023-02-15T16:12:28;11.50;99.90
43089;DHT22;28709;52.030;5.652;2023-02-15T16:14:55;11.50;99.90
43089;DHT22;28709;52.030;5.652;2023-02-15T16:17:27;11.40;99.90
43089;DHT22;28709;52.030;5.652;2023-02-15T16:20:00;11.40;99.90
43089;DHT22;28709;52.030;5.652;2023-02-15T16:22:28;11.40;99.90
43089;DHT22;28709;52.030;5.652;2023-02-15T16:29:54;11.30;99.90
43089;DHT22;28709;52.030;5.652;2023-02-15T16:32:23;11.20;99.90
43089;DHT22;28709;52.030;5.652;2023-02-15T16:35:00;11.20;99.90
43089;DHT22;28709;52.030;5.652;2023-02-15T16:37:36;11.10;99.90
43089;DHT22;28709;52.030;5.652;2023-02-15T16:40:02;11.10;99.90
43089;DHT22;28709;52.030;5.652;2023-02-15T16:42:28;11.10;99.90
43089;DHT22;28709;52.030;5.652;2023-02-15T16:45:14;11.00;99.90
43089;DHT22;28709;52.030;5.652;2023-02-15T16:47:45;10.90;99.90
43089;DHT22;28709;52.030;5.652;2023-02-15T16:50:20;10.90;99.90
43089;DHT22;28709;52.030;5.652;2023-02-15T16:52:47;10.90;99.90
43089;DHT22;28709;52.030;5.652;2023-02-15T16:55:48;10.80;99.90
43089;DHT22;28709;52.030;5.652;2023-02-15T16:58:15;10.70;99.90
43089;DHT22;28709;52.030;5.652;2023-02-15T17:00:42;10.70;99.90
43089;DHT22;28709;52.030;5.652;2023-02-15T17:05:49;10.60;99.90
43089;DHT22;28709;52.030;5.652;2023-02-15T17:08:24;10.50;99.90
43089;DHT22;28709;52.030;5.652;2023-02-15T17:13:28;10.40;99.90
43089;DHT22;28709;52.030;5.652;2023-02-15T17:20:55;10.20;99.90
43089;DHT22;28709;52.030;5.652;2023-02-15T17:23:31;10.20;99.90
43089;DHT22;28709;52.030;5.652;2023-02-15T17:25:58;10.20;99.90
43089;DHT22;28709;52.030;5.652;2023-02-15T17:28:30;10.10;99.90
43089;DHT22;28709;52.030;5.652;2023-02-15T17:30:57;10.10;99.90
43089;DHT22;28709;52.030;5.652;2023-02-15T17:36:02;10.00;99.90
43089;DHT22;28709;52.030;5.652;2023-02-15T17:38:27;10.00;99.90
43089;DHT22;28709;52.030;5.652;2023-02-15T17:40:53;9.90;99.90
43089;DHT22;28709;52.030;5.652;2023-02-15T17:43:19;9.90;99.90
43089;DHT22;28709;52.030;5.652;2023-02-15T17:45:48;9.80;99.90
43089;DHT22;28709;52.030;5.652;2023-02-15T17:48:35;9.80;99.90
43089;DHT22;28709;52.030;5.652;2023-02-15T17:51:03;9.70;99.90
43089;DHT22;28709;52.030;5.652;2023-02-15T17:53:29;9.70;99.90
43089;DHT22;28709;52.030;5.652;2023-02-15T17:55:55;9.70;99.90
43089;DHT22;28709;52.030;5.652;2023-02-15T17:58:20;9.60;99.90
43089;DHT22;28709;52.030;5.652;2023-02-15T18:00:56;9.60;99.90
43089;DHT22;28709;52.030;5.652;2023-02-15T18:03:50;9.60;99.90
43089;DHT22;28709;52.030;5.652;2023-02-15T18:06:36;9.60;99.90
43089;DHT22;28709;52.030;5.652;2023-02-15T18:09:21;9.50;99.90
43089;DHT22;28709;52.030;5.652;2023-02-15T18:12:24;9.50;99.90
43089;DHT22;28709;52.030;5.652;2023-02-15T18:14:51;9.40;99.90
43089;DHT22;28709;52.030;5.652;2023-02-15T18:17:27;9.40;99.90
43089;DHT22;28709;52.030;5.652;2023-02-15T18:19:54;9.40;99.90
43089;DHT22;28709;52.030;5.652;2023-02-15T18:22:20;9.30;99.90
43089;DHT22;28709;52.030;5.652;2023-02-15T18:24:47;9.30;99.90
43089;DHT22;28709;52.030;5.652;2023-02-15T18:27:14;9.30;99.90
43089;DHT22;28709;52.030;5.652;2023-02-15T18:29:40;9.30;99.90
43089;DHT22;28709;52.030;5.652;2023-02-15T18:32:12;9.30;99.90
43089;DHT22;28709;52.030;5.652;2023-02-15T18:34:40;9.20;99.90
43089;DHT22;28709;52.030;5.652;2023-02-15T18:37:13;9.20;99.90
43089;DHT22;28709;52.030;5.652;2023-02-15T18:39:47;9.20;99.90
43089;DHT22;28709;52.030;5.652;2023-02-15T18:42:24;9.10;99.90
43089;DHT22;28709;52.030;5.652;2023-02-15T18:45:03;9.10;99.90
43089;DHT22;28709;52.030;5.652;2023-02-15T18:47:29;9.10;99.90
43089;DHT22;28709;52.030;5.652;2023-02-15T18:49:55;9.10;99.90
43089;DHT22;28709;52.030;5.652;2023-02-15T18:52:22;9.10;99.90
43089;DHT22;28709;52.030;5.652;2023-02-15T18:54:52;9.00;99.90
43089;DHT22;28709;52.030;5.652;2023-02-15T18:57:19;9.00;99.90
43089;DHT22;28709;52.030;5.652;2023-02-15T18:59:45;9.00;99.90
43089;DHT22;28709;52.030;5.652;2023-02-15T19:02:12;9.00;99.90
43089;DHT22;28709;52.030;5.652;2023-02-15T19:04:38;9.00;99.90
43089;DHT22;28709;52.030;5.652;2023-02-15T19:07:04;9.00;99.90
43089;DHT22;28709;52.030;5.652;2023-02-15T19:09:30;8.90;99.90
43089;DHT22;28709;52.030;5.652;2023-02-15T19:11:58;8.90;99.90
43089;DHT22;28709;52.030;5.652;2023-02-15T19:14:30;8.90;99.90